Time;durP1;ratioP1;P1;durP2;ratioP2;P2;SDS_P1;SDS_P2;PMS_P1;PMS_P2;Temp;Humidity;BMP_temperature;BMP_pressure;BME280_temperature;BME280_humidity;BME280_pressure;Samples;Min_cycle;Max_cycle;Signal;HPM_P1;HPM_P2
2021/07/01 00:01:13;;;;;;;7.05;5.33;;;;;;;23.16;92.29;100857.64;1787252;80;21069;-88
2021/07/01 00:03:40;;;;;;;7.70;5.55;;;;;;;23.15;92.50;100841.92;1787643;80;21055;-87
2021/07/01 00:06:07;;;;;;;6.12;5.37;;;;;;;23.13;92.85;100844.73;1787712;80;21149;-87
2021/07/01 00:08:34;;;;;;;11.63;5.58;;;;;;;23.14;93.07;100859.63;1787615;80;20879;-86
2021/07/01 00:11:01;;;;;;;7.67;5.17;;;;;;;23.14;93.31;100857.48;1787569;80;21064;-87
2021/07/01 00:13:27;;;;;;;7.50;5.22;;;;;;;23.14;93.37;100850.36;1787436;80;20989;-85
2021/07/01 00:15:54;;;;;;;10.30;5.35;;;;;;;23.14;93.55;100848.21;1787257;80;20989;-87
2021/07/01 00:18:20;;;;;;;11.00;5.33;;;;;;;23.13;93.90;100844.73;1787624;80;21086;-85
2021/07/01 00:20:48;;;;;;;13.53;5.45;;;;;;;23.12;93.49;100836.49;1787392;80;21013;-85
2021/07/01 00:23:15;;;;;;;11.05;5.50;;;;;;;23.10;93.15;100835.83;1787752;78;21548;-84
2021/07/01 00:25:42;;;;;;;6.83;5.58;;;;;;;23.10;92.79;100837.15;1760739;80;20903;-85
2021/07/01 00:28:08;;;;;;;13.38;6.17;;;;;;;23.09;92.04;100841.31;1787601;80;21001;-85
2021/07/01 00:30:35;;;;;;;6.72;5.62;;;;;;;23.05;91.76;100847.95;1787640;80;21185;-83
2021/07/01 00:33:02;;;;;;;10.00;5.40;;;;;;;23.00;91.56;100857.77;1788361;80;20883;-84
2021/07/01 00:35:29;;;;;;;6.70;5.67;;;;;;;22.95;91.57;100872.02;1788687;80;20934;-84
2021/07/01 00:37:55;;;;;;;9.15;5.35;;;;;;;22.88;91.40;100882.97;1787485;80;20942;-85
2021/07/01 00:40:22;;;;;;;8.58;5.97;;;;;;;22.86;91.73;100896.89;1786853;80;20855;-84
2021/07/01 00:42:50;;;;;;;6.72;5.47;;;;;;;22.85;91.89;100908.95;1787106;80;20946;-86
2021/07/01 00:45:17;;;;;;;7.78;6.03;;;;;;;22.82;92.14;100922.53;1787243;80;21639;-86
2021/07/01 00:47:44;;;;;;;6.75;5.80;;;;;;;22.82;92.33;100929.98;1787373;80;20938;-79
2021/07/01 00:50:12;;;;;;;12.35;6.30;;;;;;;22.84;92.47;100947.02;1760874;80;21449;-80
2021/07/01 00:52:39;;;;;;;7.10;5.55;;;;;;;22.82;92.29;100954.30;1787749;80;20939;-77
2021/07/01 00:55:07;;;;;;;11.48;6.85;;;;;;;22.76;92.31;100954.98;1787656;80;21076;-82
2021/07/01 00:57:35;;;;;;;6.30;5.70;;;;;;;22.67;92.62;100950.24;1787385;80;20981;-79
2021/07/01 01:00:13;;;;;;;7.28;5.75;;;;;;;22.61;92.84;100962.80;1787455;80;20974;-80
2021/07/01 01:02:35;;;;;;;8.90;6.42;;;;;;;22.56;92.74;100963.30;1786594;80;20866;-77
2021/07/01 01:05:03;;;;;;;10.03;5.95;;;;;;;22.50;92.76;100975.89;1761403;80;20985;-81
2021/07/01 01:07:32;;;;;;;9.83;6.37;;;;;;;22.44;93.18;100979.72;1787214;80;21967;-82
2021/07/01 01:10:01;;;;;;;9.18;6.53;;;;;;;22.39;93.58;100990.82;1787212;80;21540;-77
2021/07/01 01:12:30;;;;;;;8.18;5.95;;;;;;;22.33;93.90;101002.57;1760907;80;21532;-84
2021/07/01 01:14:57;;;;;;;10.63;6.37;;;;;;;22.24;94.47;101007.03;1787163;80;21093;-81
2021/07/01 01:17:26;;;;;;;7.28;6.58;;;;;;;22.18;94.93;101014.83;1787443;80;21403;-85
2021/07/01 01:19:53;;;;;;;9.18;6.60;;;;;;;22.13;95.64;101017.97;1787379;80;21123;-86
2021/07/01 01:22:20;;;;;;;8.13;6.67;;;;;;;22.14;96.28;101014.34;1787424;80;20903;-85
2021/07/01 01:24:49;;;;;;;7.40;5.42;;;;;;;22.13;96.98;100995.01;1783776;80;21548;-88
2021/07/01 01:27:15;;;;;;;7.60;5.92;;;;;;;22.15;97.32;100989.05;1749186;82;20995;-79
2021/07/01 01:29:44;;;;;;;6.95;6.00;;;;;;;22.18;97.44;101006.91;1781570;80;20973;-77
2021/07/01 01:32:11;;;;;;;9.95;5.85;;;;;;;22.14;97.68;101007.73;1748967;82;21890;-79
2021/07/01 01:34:39;;;;;;;8.15;6.37;;;;;;;22.13;97.98;101006.90;1781279;80;21497;-81
2021/07/01 01:37:09;;;;;;;9.08;6.28;;;;;;;22.10;98.04;101013.84;1749120;82;20967;-85
2021/07/01 01:39:37;;;;;;;7.35;6.20;;;;;;;22.04;98.29;100996.51;1781713;80;20985;-81
2021/07/01 01:42:06;;;;;;;8.50;6.25;;;;;;;22.04;98.82;101003.11;1749507;82;20978;-83
2021/07/01 01:44:34;;;;;;;9.20;6.03;;;;;;;22.04;98.99;101011.88;1782078;80;21128;-82
2021/07/01 01:47:01;;;;;;;6.55;5.70;;;;;;;22.00;99.18;101011.03;1749686;81;20939;-84
2021/07/01 01:49:30;;;;;;;9.05;6.10;;;;;;;21.98;99.58;101002.46;1781667;80;21474;-84
2021/07/01 01:51:57;;;;;;;7.25;6.45;;;;;;;21.97;100.00;101006.09;1749085;82;20970;-83
2021/07/01 01:54:24;;;;;;;8.98;6.78;;;;;;;21.94;100.00;101011.22;1726577;80;20891;-88
2021/07/01 01:56:52;;;;;;;8.53;6.40;;;;;;;21.93;100.00;101002.95;1749120;82;21094;-86
2021/07/01 01:59:20;;;;;;;9.90;6.85;;;;;;;21.92;100.00;101006.57;1778364;80;20970;-85
2021/07/01 02:02:01;;;;;;;9.48;7.65;;;;;;;21.92;100.00;101001.81;1701799;82;20947;-83
2021/07/01 02:04:35;;;;;;;8.05;7.25;;;;;;;21.91;100.00;101002.30;1781176;80;20986;-85
2021/07/01 02:07:03;;;;;;;12.20;8.15;;;;;;;21.92;100.00;100993.88;1749045;82;20848;-86
2021/07/01 02:09:48;;;;;;;10.80;8.70;;;;;;;21.91;100.00;100986.94;1781613;80;21146;-85
2021/07/01 02:12:16;;;;;;;9.53;8.13;;;;;;;21.88;100.00;100988.07;1748989;82;20919;-86
2021/07/01 02:14:45;;;;;;;9.70;7.72;;;;;;;21.86;100.00;100990.03;1751370;80;21058;-84
2021/07/01 02:17:17;;;;;;;13.98;8.55;;;;;;;21.87;100.00;100989.54;1748687;82;20974;-85
2021/07/01 02:19:45;;;;;;;9.83;7.62;;;;;;;21.85;100.00;100973.88;1781806;80;21501;-86
2021/07/01 02:22:12;;;;;;;10.40;8.30;;;;;;;21.83;100.00;100961.79;1749358;82;21169;-86
2021/07/01 02:24:41;;;;;;;11.43;8.40;;;;;;;21.80;100.00;100947.59;1785357;80;21036;-82
2021/07/01 02:27:09;;;;;;;9.38;7.85;;;;;;;21.76;100.00;100938.37;1757361;81;21587;-84
2021/07/01 02:29:36;;;;;;;11.68;8.18;;;;;;;21.70;100.00;100931.92;1790560;80;20981;-90
2021/07/01 02:32:07;;;;;;;9.78;7.42;;;;;;;21.68;100.00;100919.88;1757437;81;20973;-85
2021/07/01 02:34:39;;;;;;;11.35;7.78;;;;;;;21.66;100.00;100922.70;1763871;80;21137;-87
2021/07/01 02:37:23;;;;;;;9.53;7.58;;;;;;;21.64;100.00;100928.13;1757428;81;20914;-82
2021/07/01 02:40:15;;;;;;;11.88;7.30;;;;;;;21.60;100.00;100934.73;1789727;80;21001;-88
2021/07/01 02:42:42;;;;;;;8.55;7.03;;;;;;;21.59;100.00;100933.59;1755661;81;21056;-88
2021/07/01 02:45:11;;;;;;;11.83;7.90;;;;;;;21.59;100.00;100936.23;1790567;80;20942;-87
2021/07/01 02:47:41;;;;;;;;;;;;;;;21.61;100.00;100926.31;1759983;81;21575;-87
2021/07/01 02:50:09;;;;;;;10.95;7.55;;;;;;;21.63;100.00;100922.52;1790070;80;20170;-87
2021/07/01 02:52:38;;;;;;;7.40;5.97;;;;;;;21.61;100.00;100923.67;1788286;80;21846;-86
2021/07/01 02:55:06;;;;;;;9.70;6.33;;;;;;;21.59;100.00;100932.27;1768585;81;21071;-88
2021/07/01 02:57:35;;;;;;;10.88;6.87;;;;;;;21.59;100.00;100935.74;1790469;80;20929;-86
2021/07/01 03:00:06;;;;;;;8.58;6.42;;;;;;;21.59;100.00;100934.42;1757369;81;21888;-85
2021/07/01 03:02:42;;;;;;;10.13;6.37;;;;;;;21.60;100.00;100932.09;1789655;80;20965;-87
2021/07/01 03:05:11;;;;;;;9.23;6.80;;;;;;;21.59;100.00;100930.95;1756874;81;21511;-88
2021/07/01 03:07:40;;;;;;;12.88;6.45;;;;;;;21.57;100.00;100932.42;1790600;80;20965;-90
2021/07/01 03:10:07;;;;;;;12.15;6.47;;;;;;;21.57;100.00;100936.38;1757732;81;21316;-84
2021/07/01 03:12:37;;;;;;;10.88;6.42;;;;;;;21.58;100.00;100934.57;1764352;80;21409;-90
2021/07/01 03:15:06;;;;;;;7.62;6.03;;;;;;;21.59;100.00;100934.91;1722838;81;20981;-87
2021/07/01 03:17:34;;;;;;;8.05;6.08;;;;;;;21.60;100.00;100926.01;1791534;80;20925;-87
2021/07/01 03:20:00;;;;;;;8.68;6.62;;;;;;;21.60;100.00;100921.52;1732209;81;20982;-88
2021/07/01 03:22:41;;;;;;;10.90;6.37;;;;;;;21.58;100.00;100916.91;1786039;80;20981;-88
2021/07/01 03:25:09;;;;;;;11.73;6.55;;;;;;;21.59;100.00;100913.30;1755789;80;21144;-83
2021/07/01 03:27:36;;;;;;;8.95;6.53;;;;;;;21.60;100.00;100920.73;1761175;80;21006;-89
2021/07/01 03:30:05;;;;;;;9.35;6.33;;;;;;;21.61;100.00;100931.59;1754824;81;21513;-86
2021/07/01 03:32:32;;;;;;;9.73;6.75;;;;;;;21.63;100.00;100937.04;1787244;80;20958;-89
2021/07/01 03:34:59;;;;;;;12.20;6.53;;;;;;;21.65;100.00;100946.13;1729323;81;21005;-85
2021/07/01 03:37:45;;;;;;;14.40;7.30;;;;;;;21.68;100.00;100956.85;1787426;80;21092;-89
2021/07/01 03:40:23;;;;;;;14.28;7.10;;;;;;;21.69;100.00;100964.62;1753633;81;20982;-89
2021/07/01 03:42:50;;;;;;;9.48;7.65;;;;;;;21.71;100.00;100964.45;1787460;80;20915;-88
2021/07/01 03:45:17;;;;;;;13.93;7.90;;;;;;;21.74;100.00;100954.38;1754611;81;21006;-88
2021/07/01 03:47:44;;;;;;;8.63;7.72;;;;;;;21.77;100.00;100957.17;1761263;80;20977;-86
2021/07/01 03:50:12;;;;;;;8.43;7.62;;;;;;;21.77;100.00;100969.06;1754358;81;21182;-82
2021/07/01 03:52:57;;;;;;;10.43;8.85;;;;;;;21.79;100.00;100971.06;1787278;80;21666;-83
2021/07/01 03:55:25;;;;;;;11.85;8.93;;;;;;;21.80;100.00;100967.41;1754499;81;20891;-87
2021/07/01 03:57:52;;;;;;;14.07;9.38;;;;;;;21.80;100.00;100981.45;1787628;80;20942;-86
2021/07/01 04:00:19;;;;;;;12.65;9.03;;;;;;;21.82;100.00;100976.84;1729554;81;21001;-90
2021/07/01 04:02:46;;;;;;;12.18;9.03;;;;;;;21.84;100.00;100972.70;1787722;80;21148;-88
2021/07/01 04:05:17;;;;;;;11.53;9.08;;;;;;;21.88;100.00;100985.91;1755411;81;21572;-89
2021/07/01 04:07:45;;;;;;;15.23;9.20;;;;;;;21.89;100.00;100977.84;1788235;80;20910;-90
2021/07/01 04:10:17;;;;;;;15.63;10.03;;;;;;;21.92;100.00;100975.38;1755238;81;20888;-90
2021/07/01 04:12:49;;;;;;;13.25;9.20;;;;;;;21.95;100.00;100953.39;1756782;81;21056;-89
2021/07/01 04:15:19;;;;;;;12.03;9.93;;;;;;;21.98;100.00;100949.61;1768399;80;21341;-88
2021/07/01 04:18:12;;;;;;;14.28;10.08;;;;;;;22.01;100.00;100947.95;1754904;81;20883;-90
2021/07/01 04:20:58;;;;;;;13.38;9.58;;;;;;;22.06;100.00;100943.80;1754452;81;21098;-87
2021/07/01 04:23:43;;;;;;;13.68;10.13;;;;;;;22.17;100.00;100928.58;1785065;80;20994;-89
2021/07/01 04:26:31;;;;;;;12.53;10.93;;;;;;;22.29;100.00;100907.39;1749437;81;20947;-89
2021/07/01 04:28:58;;;;;;;13.70;12.30;;;;;;;22.40;100.00;100909.67;1749146;82;21167;-82
2021/07/01 04:31:26;;;;;;;14.07;10.85;;;;;;;22.50;100.00;100913.73;1784409;80;20883;-87
2021/07/01 04:33:55;;;;;;;17.05;11.50;;;;;;;22.58;100.00;100921.66;1754136;81;21021;-87
2021/07/01 04:36:22;;;;;;;15.93;12.60;;;;;;;22.66;100.00;100938.00;1749208;82;20912;-85
2021/07/01 04:38:50;;;;;;;15.32;13.70;;;;;;;22.73;100.00;100944.26;1749249;82;20979;-89
2021/07/01 04:41:23;;;;;;;20.90;14.20;;;;;;;22.82;100.00;100950.32;1784991;80;21138;-87
2021/07/01 04:43:52;;;;;;;17.48;14.40;;;;;;;22.89;100.00;100944.17;1754003;81;21799;-88
2021/07/01 04:46:21;;;;;;;16.02;14.35;;;;;;;22.99;100.00;100944.78;1724950;81;20989;-88
2021/07/01 04:48:51;;;;;;;18.42;15.38;;;;;;;23.07;100.00;100947.89;1754791;80;21025;-84
2021/07/01 04:51:18;;;;;;;16.42;14.80;;;;;;;23.15;100.00;100951.80;1755633;80;21532;-86
2021/07/01 04:54:04;;;;;;;18.15;15.58;;;;;;;23.20;100.00;100945.46;1754857;81;21160;-90
2021/07/01 04:56:49;;;;;;;19.30;15.65;;;;;;;23.25;100.00;100938.33;1754982;81;20919;-89
2021/07/01 04:59:20;;;;;;;20.15;15.55;;;;;;;23.28;100.00;100941.95;1755040;81;20994;-89
2021/07/01 05:01:59;;;;;;;14.68;13.18;;;;;;;23.30;100.00;100948.70;1754947;81;21575;-89
2021/07/01 05:04:31;;;;;;;22.32;15.18;;;;;;;23.37;100.00;100954.12;1749123;81;20989;-87
2021/07/01 05:06:58;;;;;;;15.13;13.58;;;;;;;23.42;100.00;100944.67;1754350;81;21240;-84
2021/07/01 05:09:25;;;;;;;18.12;15.68;;;;;;;23.49;100.00;100939.48;1754150;81;20919;-90
2021/07/01 05:11:55;;;;;;;15.40;13.80;;;;;;;23.55;100.00;100949.37;1749218;81;20899;-91
2021/07/01 05:14:22;;;;;;;15.20;13.78;;;;;;;23.62;100.00;100942.36;1751502;81;20960;-88
2021/07/01 05:16:51;;;;;;;15.98;12.63;;;;;;;23.68;100.00;100951.75;1785321;79;20974;-90
2021/07/01 05:19:18;;;;;;;17.00;13.45;;;;;;;23.76;100.00;100950.03;1754848;81;21156;-87
2021/07/01 05:21:47;;;;;;;15.40;12.63;;;;;;;23.85;100.00;100944.97;1748135;81;21501;-87
2021/07/01 05:24:32;;;;;;;14.80;12.20;;;;;;;23.94;100.00;100932.78;1754710;81;20982;-86
2021/07/01 05:27:10;;;;;;;12.82;11.53;;;;;;;24.06;100.00;100935.83;1749461;80;21457;-89
2021/07/01 05:29:56;;;;;;;18.80;11.55;;;;;;;24.16;100.00;100923.13;1754277;81;20898;-88
2021/07/01 05:32:25;;;;;;;14.85;11.00;;;;;;;24.25;100.00;100918.05;1748352;81;21975;-89
2021/07/01 05:34:54;;;;;;;17.50;11.43;;;;;;;24.34;100.00;100912.17;1750111;81;21006;-89
2021/07/01 05:37:21;;;;;;;15.43;11.33;;;;;;;24.42;100.00;100904.09;1749228;82;20951;-88
2021/07/01 05:39:51;;;;;;;16.15;11.57;;;;;;;24.48;99.92;100898.05;1752961;81;21046;-91
2021/07/01 05:42:20;;;;;;;13.32;11.20;;;;;;;24.55;99.36;100889.67;1765605;79;21540;-89
2021/07/01 05:44:47;;;;;;;14.13;10.48;;;;;;;24.64;98.80;100881.91;1754039;81;21138;-90
2021/07/01 05:47:14;;;;;;;15.00;10.35;;;;;;;24.73;98.28;100862.20;1748716;80;20978;-87
2021/07/01 05:49:42;;;;;;;13.18;10.00;;;;;;;24.82;97.38;100857.66;1754039;81;20962;-85
2021/07/01 05:52:17;;;;;;;12.23;11.03;;;;;;;24.91;96.49;100855.19;1753586;81;20895;-86
2021/07/01 05:54:59;;;;;;;11.53;10.38;;;;;;;24.97;96.23;100849.12;1753419;81;20923;-86
2021/07/01 05:57:32;;;;;;;12.63;10.10;;;;;;;25.02;96.45;100834.25;1713946;81;21503;-86
2021/07/01 05:59:59;;;;;;;11.67;9.70;;;;;;;25.06;95.99;100818.77;1765533;79;20985;-87
2021/07/01 06:02:26;;;;;;;16.40;9.85;;;;;;;25.04;96.42;100816.31;1765205;80;21428;-83
2021/07/01 06:04:54;;;;;;;12.73;9.00;;;;;;;25.05;97.21;100811.80;1765296;81;21441;-85
2021/07/01 06:07:41;;;;;;;9.53;8.50;;;;;;;25.02;96.73;100815.66;1765614;79;20943;-87
2021/07/01 06:10:09;;;;;;;15.15;8.08;;;;;;;24.98;97.02;100838.82;1765470;81;21527;-87
2021/07/01 06:12:36;;;;;;;15.53;8.95;;;;;;;25.00;96.82;100862.02;1750942;80;20938;-81
2021/07/01 06:15:04;;;;;;;12.28;7.97;;;;;;;25.01;96.58;100884.41;1749185;82;20888;-83
2021/07/01 06:17:34;;;;;;;17.75;9.45;;;;;;;25.01;96.79;100895.53;1781104;79;20954;-87
2021/07/01 06:20:08;;;;;;;14.15;8.28;;;;;;;25.03;96.75;100902.79;1715196;82;21011;-88
2021/07/01 06:22:37;;;;;;;8.48;7.03;;;;;;;25.03;96.98;100901.46;1781588;79;21111;-87
2021/07/01 06:25:06;;;;;;;10.40;8.10;;;;;;;25.07;96.76;100915.52;1749316;80;20983;-87
2021/07/01 06:27:37;;;;;;;8.48;7.58;;;;;;;25.14;96.23;100935.50;1787450;80;20880;-83
2021/07/01 06:30:18;;;;;;;11.00;7.67;;;;;;;25.21;95.94;100936.36;1727301;80;20997;-88
2021/07/01 06:32:45;;;;;;;7.67;6.85;;;;;;;25.30;95.29;100935.25;1772815;80;21221;-87
2021/07/01 06:35:19;;;;;;;15.10;7.83;;;;;;;25.38;94.78;100939.09;1752923;81;21127;-79
2021/07/01 06:37:47;;;;;;;15.38;9.00;;;;;;;25.49;94.27;100964.34;1785211;80;20989;-82
2021/07/01 06:40:32;;;;;;;15.68;8.25;;;;;;;25.52;94.72;100979.44;1752655;81;21123;-86
2021/07/01 06:43:03;;;;;;;8.20;7.40;;;;;;;25.56;94.22;100997.16;1781090;79;21692;-86
2021/07/01 06:45:53;;;;;;;11.03;6.90;;;;;;;25.50;91.33;100996.56;1753107;81;21080;-87
2021/07/01 06:48:39;;;;;;;13.18;7.95;;;;;;;25.32;91.99;100998.80;1785631;79;21140;-82
2021/07/01 06:51:25;;;;;;;11.25;6.53;;;;;;;25.32;92.32;101000.13;1752545;81;21065;-85
2021/07/01 06:54:17;;;;;;;23.22;8.20;;;;;;;25.32;89.43;101012.09;1785417;80;21614;-87
2021/07/01 06:56:53;;;;;;;24.82;8.33;;;;;;;25.23;87.86;101008.73;1687415;81;21058;-86
2021/07/01 06:59:22;;;;;;;20.57;7.22;;;;;;;25.13;89.22;101008.21;1785475;79;21623;-86
2021/07/01 07:01:53;;;;;;;8.33;6.25;;;;;;;25.14;89.56;100998.71;1752458;80;21137;-89
2021/07/01 07:04:20;;;;;;;9.00;6.67;;;;;;;25.21;87.63;100997.45;1785124;80;21084;-85
2021/07/01 07:06:47;;;;;;;10.85;6.85;;;;;;;25.26;88.95;100991.09;1752740;81;21043;-86
2021/07/01 07:09:14;;;;;;;10.13;6.65;;;;;;;25.34;89.41;100985.64;1785654;79;21009;-86
2021/07/01 07:11:43;;;;;;;8.20;5.90;;;;;;;25.43;89.05;100982.37;1752866;80;22306;-86
2021/07/01 07:14:12;;;;;;;7.08;6.33;;;;;;;25.46;88.26;100972.70;1785230;79;21070;-85
2021/07/01 07:16:41;;;;;;;6.83;5.87;;;;;;;25.54;88.19;100967.27;1753070;80;21025;-88
2021/07/01 07:19:11;;;;;;;9.33;5.42;;;;;;;25.62;86.68;100957.31;1785707;79;20934;-84
2021/07/01 07:21:45;;;;;;;7.33;6.53;;;;;;;25.67;86.83;100950.11;1753386;80;21512;-85
2021/07/01 07:24:19;;;;;;;7.22;6.10;;;;;;;25.68;86.07;100940.62;1786331;80;21060;-87
2021/07/01 07:26:51;;;;;;;8.35;6.08;;;;;;;25.73;86.70;100925.41;1746893;80;22013;-87
2021/07/01 07:29:20;;;;;;;11.55;7.03;;;;;;;25.87;86.83;100904.56;1795810;79;20960;-85
2021/07/01 07:31:48;;;;;;;9.33;5.87;;;;;;;26.10;85.86;100884.34;1778517;80;21140;-81
2021/07/01 07:34:17;;;;;;;9.43;6.15;;;;;;;26.28;84.63;100864.20;1795239;80;20930;-87
2021/07/01 07:36:45;;;;;;;11.63;5.60;;;;;;;26.41;82.84;100867.42;1741642;80;20997;-88
2021/07/01 07:39:12;;;;;;;9.28;5.90;;;;;;;26.45;81.58;100881.98;1765234;80;21942;-87
2021/07/01 07:41:42;;;;;;;9.00;6.33;;;;;;;26.46;81.43;100890.26;1793816;80;21089;-88
2021/07/01 07:44:11;;;;;;;10.80;6.17;;;;;;;26.44;81.57;100900.30;1795310;80;21560;-85
2021/07/01 07:46:39;;;;;;;11.25;5.92;;;;;;;26.45;81.26;100901.13;1792719;80;21037;-85
2021/07/01 07:49:06;;;;;;;9.50;5.97;;;;;;;26.49;81.48;100891.70;1765384;80;21097;-88
2021/07/01 07:51:39;;;;;;;7.35;6.12;;;;;;;26.54;81.65;100886.61;1757246;80;21827;-85
2021/07/01 07:54:07;;;;;;;7.22;6.25;;;;;;;26.52;82.07;100889.46;1754867;80;21109;-86
2021/07/01 07:56:36;;;;;;;8.70;6.10;;;;;;;26.51;81.66;100884.35;1754781;81;21006;-86
2021/07/01 07:59:09;;;;;;;6.72;5.42;;;;;;;26.54;82.13;100885.28;1753053;81;21066;-90
2021/07/01 08:01:38;;;;;;;10.80;5.70;;;;;;;26.60;81.21;100879.16;1754827;81;21085;-88
2021/07/01 08:04:07;;;;;;;6.25;5.22;;;;;;;26.72;82.02;100874.37;1754542;81;21148;-86
2021/07/01 08:06:34;;;;;;;5.60;5.00;;;;;;;26.83;80.10;100872.48;1754574;81;20994;-86
2021/07/01 08:09:04;;;;;;;7.70;5.72;;;;;;;26.92;78.79;100865.64;1737298;81;21264;-88
2021/07/01 08:11:32;;;;;;;9.20;4.87;;;;;;;26.98;78.86;100856.34;1724638;82;21127;-82
2021/07/01 08:14:00;;;;;;;10.68;5.40;;;;;;;27.07;78.84;100848.95;1724640;83;21094;-85
2021/07/01 08:16:28;;;;;;;6.00;5.00;;;;;;;27.15;79.20;100842.94;1724479;83;21220;-87
2021/07/01 08:18:56;;;;;;;5.60;5.05;;;;;;;27.26;77.78;100835.64;1724555;83;21094;-88
2021/07/01 08:21:27;;;;;;;9.43;5.22;;;;;;;27.35;76.57;100827.74;1672723;83;32850;-87
2021/07/01 08:23:57;;;;;;;11.90;5.93;;;;;;;27.46;77.44;100826.84;1725214;83;21290;-90
2021/07/01 08:26:26;;;;;;;7.55;4.78;;;;;;;27.56;76.27;100833.91;1695716;83;21133;-88
2021/07/01 08:28:54;;;;;;;8.40;5.40;;;;;;;27.58;74.30;100829.18;1723890;83;21150;-79
2021/07/01 08:31:22;;;;;;;7.45;4.85;;;;;;;27.60;74.14;100822.61;1724363;83;21569;-86
2021/07/01 08:33:49;;;;;;;7.05;4.85;;;;;;;27.62;74.74;100806.41;1723828;83;21094;-87
2021/07/01 08:36:20;;;;;;;13.55;4.65;;;;;;;27.65;74.44;100806.82;1724361;83;21086;-91
2021/07/01 08:38:55;;;;;;;8.55;5.05;;;;;;;27.71;72.07;100802.48;1724102;83;21635;-88
2021/07/01 08:41:25;;;;;;;11.30;4.60;;;;;;;27.72;71.23;100797.47;1724790;83;21143;-90
2021/07/01 08:43:59;;;;;;;9.90;4.87;;;;;;;27.73;71.41;100800.42;1695721;83;21639;-86
2021/07/01 08:46:36;;;;;;;11.38;4.92;;;;;;;27.79;71.95;100798.28;1724509;83;21086;-87
2021/07/01 08:49:08;;;;;;;9.85;5.05;;;;;;;27.86;71.66;100799.87;1692270;83;21109;-87
2021/07/01 08:51:45;;;;;;;7.35;4.40;;;;;;;27.96;70.37;100791.42;1726175;83;21092;-85
2021/07/01 08:54:26;;;;;;;7.55;4.92;;;;;;;28.05;70.60;100786.19;1727610;82;21140;-85
2021/07/01 08:57:04;;;;;;;13.13;5.65;;;;;;;28.12;69.76;100798.16;1728099;83;21052;-91
2021/07/01 08:59:39;;;;;;;9.65;4.37;;;;;;;28.13;70.05;100800.64;1727610;83;20993;-89
2021/07/01 09:02:11;;;;;;;8.58;4.53;;;;;;;28.20;70.28;100791.27;1727337;83;20953;-89
2021/07/01 09:04:49;;;;;;;11.03;4.80;;;;;;;28.30;70.29;100800.43;1727869;82;21061;-88
2021/07/01 09:07:23;;;;;;;6.10;4.08;;;;;;;28.35;68.98;100788.61;1728120;81;21188;-86
2021/07/01 09:09:54;;;;;;;5.65;4.10;;;;;;;28.41;66.61;100792.78;1727704;83;21001;-85
2021/07/01 09:12:26;;;;;;;7.87;4.40;;;;;;;28.48;66.72;100792.23;1727876;81;21060;-90
2021/07/01 09:15:01;;;;;;;9.28;4.47;;;;;;;28.52;65.61;100792.11;1698925;83;21104;-91
2021/07/01 09:17:33;;;;;;;7.15;4.05;;;;;;;28.54;65.16;100799.38;1728207;82;20938;-87
2021/07/01 09:20:07;;;;;;;7.50;4.33;;;;;;;28.59;64.03;100797.70;1727879;83;21099;-92
2021/07/01 09:22:35;;;;;;;6.22;4.22;;;;;;;28.63;64.53;100788.73;1728468;83;21005;-83
2021/07/01 09:25:04;;;;;;;5.97;3.85;;;;;;;28.68;64.23;100783.62;1729333;82;21107;-89
2021/07/01 09:27:34;;;;;;;14.65;4.67;;;;;;;28.73;64.58;100771.25;1753394;81;21064;-91
2021/07/01 09:30:02;;;;;;;15.13;4.87;;;;;;;28.77;64.66;100763.62;1753951;81;21065;-87
2021/07/01 09:32:30;;;;;;;9.10;4.12;;;;;;;28.77;65.04;100764.44;1735999;81;21151;-86
2021/07/01 09:34:57;;;;;;;8.00;3.87;;;;;;;28.84;63.73;100755.86;1726530;83;21001;-86
2021/07/01 09:37:30;;;;;;;8.75;3.80;;;;;;;28.89;63.06;100761.36;1700953;83;21096;-88
2021/07/01 09:39:57;;;;;;;3.65;3.20;;;;;;;28.93;60.74;100756.40;1701268;83;21765;-86
2021/07/01 09:42:29;;;;;;;7.85;3.60;;;;;;;28.94;60.27;100747.36;1701054;83;21017;-89
2021/07/01 09:45:02;;;;;;;9.98;3.25;;;;;;;28.96;59.62;100744.45;1725918;83;21100;-86
2021/07/01 09:47:31;;;;;;;7.08;3.85;;;;;;;29.01;59.31;100733.40;1702308;83;21077;-87
2021/07/01 09:49:58;;;;;;;8.38;3.20;;;;;;;29.07;58.10;100729.84;1726078;83;21081;-88
2021/07/01 09:52:25;;;;;;;10.55;3.60;;;;;;;29.13;57.98;100716.96;1702199;83;21033;-85
2021/07/01 09:55:00;;;;;;;9.08;4.00;;;;;;;29.15;57.75;100724.23;1726220;83;21085;-87
2021/07/01 09:57:32;;;;;;;6.08;3.33;;;;;;;29.19;57.44;100718.75;1726950;83;21304;-85
2021/07/01 10:00:04;;;;;;;7.08;3.42;;;;;;;29.26;58.56;100716.05;1702341;83;21323;-83
2021/07/01 10:02:32;;;;;;;9.13;3.60;;;;;;;29.30;59.22;100716.70;1724991;83;21602;-86
2021/07/01 10:05:00;;;;;;;6.33;3.42;;;;;;;29.69;57.80;100711.41;1726904;83;21129;-89
2021/07/01 10:07:27;;;;;;;5.97;3.52;;;;;;;30.28;55.46;100704.48;1726545;83;21071;-84
2021/07/01 10:10:01;;;;;;;7.78;3.95;;;;;;;30.59;55.44;100703.39;1726290;83;21215;-82
2021/07/01 10:12:32;;;;;;;10.60;3.75;;;;;;;30.64;55.93;100696.28;1725276;82;21060;-86
2021/07/01 10:15:01;;;;;;;4.92;3.62;;;;;;;30.70;56.69;100696.70;1726187;81;21361;-84
2021/07/01 10:17:30;;;;;;;14.50;3.58;;;;;;;30.86;55.13;100699.20;1726469;83;21559;-83
2021/07/01 10:20:09;;;;;;;8.30;3.50;;;;;;;30.80;53.69;100704.98;1726302;83;21065;-84
2021/07/01 10:22:47;;;;;;;7.75;3.15;;;;;;;30.73;52.79;100701.59;1726105;83;21152;-88
2021/07/01 10:25:14;;;;;;;10.28;3.22;;;;;;;30.75;52.56;100704.87;1725663;81;21504;-86
2021/07/01 10:27:42;;;;;;;5.97;3.12;;;;;;;30.80;51.58;100700.96;1727213;82;21082;-85
2021/07/01 10:30:24;;;;;;;6.08;4.25;;;;;;;30.89;52.46;100708.94;1748922;82;21616;-88
2021/07/01 10:32:57;;;;;;;6.12;3.17;;;;;;;31.04;52.50;100705.84;1723178;83;21094;-89
2021/07/01 10:35:33;;;;;;;6.65;3.35;;;;;;;31.12;52.05;100699.28;1749149;81;21139;-88
2021/07/01 10:38:08;;;;;;;10.50;3.00;;;;;;;31.08;51.80;100687.42;1719109;82;21733;-86
2021/07/01 10:40:40;;;;;;;4.45;2.87;;;;;;;31.01;49.48;100694.77;1749200;81;21061;-89
2021/07/01 10:43:15;;;;;;;3.60;3.02;;;;;;;30.92;47.80;100684.91;1749087;81;21009;-86
2021/07/01 10:45:58;;;;;;;11.97;3.52;;;;;;;30.90;48.27;100684.30;1748220;82;21531;-88
2021/07/01 10:48:26;;;;;;;5.83;3.17;;;;;;;30.90;51.19;100674.92;1748964;81;21141;-87
2021/07/01 10:51:11;;;;;;;4.80;3.25;;;;;;;30.89;50.14;100676.78;1749945;81;21008;-89
2021/07/01 10:53:44;;;;;;;7.75;3.20;;;;;;;30.94;50.13;100664.85;1749466;81;21575;-88
2021/07/01 10:56:25;;;;;;;7.33;3.65;;;;;;;31.00;48.68;100669.83;1749351;82;21075;-87
2021/07/01 10:58:57;;;;;;;3.85;2.90;;;;;;;30.96;47.91;100686.08;1749267;82;21065;-83
2021/07/01 11:01:30;;;;;;;17.42;2.95;;;;;;;30.86;47.92;100676.42;1749143;82;21089;-89
2021/07/01 11:04:11;;;;;;;9.68;3.45;;;;;;;30.79;49.39;100681.91;1749375;81;21539;-83
2021/07/01 11:06:40;;;;;;;17.55;8.95;;;;;;;30.73;49.92;100682.05;1749169;82;21059;-89
2021/07/01 11:09:10;;;;;;;10.15;3.87;;;;;;;30.74;50.75;100689.02;1749018;81;21492;-83
2021/07/01 11:11:40;;;;;;;5.95;3.50;;;;;;;30.69;51.58;100676.85;1748997;82;21088;-88
2021/07/01 11:14:11;;;;;;;8.43;3.75;;;;;;;30.67;51.37;100682.42;1748885;82;21111;-86
2021/07/01 11:16:44;;;;;;;6.47;2.90;;;;;;;30.63;51.79;100672.42;1749764;81;21496;-85
2021/07/01 11:19:16;;;;;;;12.93;3.25;;;;;;;30.66;51.44;100678.14;1750136;81;21070;-87
2021/07/01 11:21:52;;;;;;;5.10;3.02;;;;;;;30.68;50.42;100681.91;1749981;81;20985;-85
2021/07/01 11:24:23;;;;;;;7.28;3.10;;;;;;;30.56;49.98;100673.05;1751059;82;20990;-84
2021/07/01 11:26:53;;;;;;;5.00;3.00;;;;;;;30.53;50.27;100677.02;1750874;81;21134;-85
2021/07/01 11:29:44;;;;;;;4.70;2.58;;;;;;;30.67;50.63;100669.03;1757532;80;21034;-83
2021/07/01 11:32:21;;;;;;;7.78;3.10;;;;;;;30.82;49.50;100672.09;1757199;81;20926;-85
2021/07/01 11:34:49;;;;;;;6.72;2.50;;;;;;;30.97;48.48;100668.13;1757042;81;21037;-84